^^
Station Historical Data
Daily Summary for October 21, 2021 Units:  English    Metric   Both
Daily Weekly Monthly Yearly
  High: Low: Average:
Temperature: 63.3 °F 46 °F 56.5 °F
Dew Point: 58 °F 38.2 °F 52.6 °F
Humidity: 92% 74% 87%
Wind Speed: 8mph 0mph 3.4mph
Wind Gust: 18mph - -
Wind- - SSE
Pressure: 29.91 in 29.65 in -
Precipitation: 0.53 in    
 
 
Tabular Data for October 21, 2021
Time Temperature Dew Point Pressure Wind Wind Speed Wind Gust Humidity Rainfall Rate (Hourly) solar
00:00 59.6 °F 55.4 °F 29.87 in East 1 mph 1 mph 86% 0.00 in 0 W/m2
00:05 59.5 °F 55.3 °F 29.87 in NE 1 mph 1 mph 86% 0.00 in 0 W/m2
00:10 59.4 °F 55.2 °F 29.87 in NNW 1 mph 2 mph 86% 0.00 in 0 W/m2
00:15 59.3 °F 55.4 °F 29.88 in NNE 1 mph 2 mph 87% 0.00 in 0 W/m2
00:20 59.2 °F 55.3 °F 29.87 in NW 2 mph 2 mph 87% 0.00 in 0 W/m2
00:25 59.2 °F 55.6 °F 29.87 in East 1 mph 2 mph 88% 0.00 in 0 W/m2
00:30 59.2 °F 55.6 °F 29.87 in ENE 1 mph 1 mph 88% 0.00 in 0 W/m2
00:35 59.1 °F 55.5 °F 29.86 in NE 1 mph 2 mph 88% 0.00 in 0 W/m2
00:40 59.1 °F 55.5 °F 29.86 in NE 1 mph 1 mph 88% 0.00 in 0 W/m2
00:45 59.1 °F 55.9 °F 29.87 in ENE 1 mph 1 mph 89% 0.00 in 0 W/m2
00:50 59.1 °F 55.9 °F 29.86 in NE 1 mph 1 mph 89% 0.00 in 0 W/m2
00:55 59.1 °F 55.9 °F 29.86 in ENE 1 mph 2 mph 89% 0.00 in 0 W/m2
01:00 59.1 °F 55.9 °F 29.86 in ENE 1 mph 2 mph 89% 0.00 in 0 W/m2
01:05 59.1 °F 55.9 °F 29.86 in East 1 mph 2 mph 89% 0.00 in 0 W/m2
01:10 59.1 °F 55.9 °F 29.86 in NE 1 mph 1 mph 89% 0.00 in 0 W/m2
01:15 59 °F 55.8 °F 29.85 in Calm   1 mph 89% 0.00 in 0 W/m2
01:20 59 °F 55.8 °F 29.85 in Calm   1 mph 89% 0.00 in 0 W/m2
01:25 59 °F 56.1 °F 29.85 in NNE 1 mph 1 mph 90% 0.00 in 0 W/m2
01:30 59 °F 56.1 °F 29.85 in NE 1 mph 1 mph 90% 0.00 in 0 W/m2
01:35 58.9 °F 56 °F 29.85 in ENE 1 mph 1 mph 90% 0.00 in 0 W/m2
01:40 58.8 °F 55.9 °F 29.84 in NE 1 mph 1 mph 90% 0.00 in 0 W/m2
01:45 58.8 °F 55.9 °F 29.84 in East 2 mph 2 mph 90% 0.00 in 0 W/m2
01:50 58.7 °F 55.8 °F 29.84 in East 2 mph 3 mph 90% 0.00 in 0 W/m2
01:55 58.7 °F 55.8 °F 29.83 in East 2 mph 3 mph 90% 0.00 in 0 W/m2
02:00 58.7 °F 55.8 °F 29.83 in ESE 1 mph 1 mph 90% 0.00 in 0 W/m2
02:05 58.6 °F 55.7 °F 29.83 in East 1 mph 1 mph 90% 0.00 in 0 W/m2
02:10 58.6 °F 55.7 °F 29.83 in Calm     90% 0.00 in 0 W/m2
02:15 58.6 °F 55.7 °F 29.83 in ESE 1 mph 1 mph 90% 0.00 in 0 W/m2
02:20 58.6 °F 55.7 °F 29.83 in East 1 mph 1 mph 90% 0.00 in 0 W/m2
02:25 58.6 °F 55.7 °F 29.83 in Calm   1 mph 90% 0.00 in 0 W/m2
02:30 58.6 °F 55.7 °F 29.82 in Calm     90% 0.00 in 0 W/m2
02:35 58.7 °F 55.8 °F 29.83 in Calm     90% 0.00 in 0 W/m2
02:40 58.6 °F 55.7 °F 29.83 in Calm   1 mph 90% 0.00 in 0 W/m2
02:45 58.6 °F 55.7 °F 29.82 in Calm   1 mph 90% 0.00 in 0 W/m2
02:50 58.6 °F 55.7 °F 29.81 in NE 1 mph 1 mph 90% 0.00 in 0 W/m2
02:55 58.6 °F 55.7 °F 29.81 in NE 1 mph 1 mph 90% 0.00 in 0 W/m2
03:00 58.4 °F 55.5 °F 29.80 in NE 1 mph 1 mph 90% 0.00 in 0 W/m2
03:05 58.4 °F 55.5 °F 29.81 in NE 1 mph 1 mph 90% 0.00 in 0 W/m2
03:10 58.4 °F 55.5 °F 29.82 in NNW 1 mph 1 mph 90% 0.04 in 0 W/m2
03:15 58.3 °F 55.4 °F 29.83 in WNW 1 mph 1 mph 90% 0.04 in 0 W/m2
03:20 58.3 °F 55.4 °F 29.83 in NW 1 mph 2 mph 90% 0.04 in 0 W/m2
03:25 58.2 °F 55.3 °F 29.83 in NNW 1 mph 2 mph 90% 0.04 in 0 W/m2
03:30 58.2 °F 55.3 °F 29.82 in North 1 mph 1 mph 90% 0.04 in 0 W/m2
03:35 58.2 °F 55.3 °F 29.81 in NE 1 mph 1 mph 90% 0.04 in 0 W/m2
03:40 58.2 °F 55.3 °F 29.81 in WNW 1 mph 1 mph 90% 0.19 in 0 W/m2
03:45 58.2 °F 55.3 °F 29.81 in NNE 1 mph 1 mph 90% 0.11 in 0 W/m2
03:50 58.2 °F 55.3 °F 29.80 in East 1 mph 1 mph 90% 0.14 in 0 W/m2
03:55 58.2 °F 55.6 °F 29.80 in South 1 mph 1 mph 91% 0.15 in 0 W/m2
04:00 58.1 °F 55.5 °F 29.81 in ESE 1 mph 1 mph 91% 0.17 in 0 W/m2
04:05 58.1 °F 55.5 °F 29.80 in Calm   1 mph 91% 0.13 in 0 W/m2
04:10 58.2 °F 55.6 °F 29.80 in SE 1 mph 1 mph 91% 0.12 in 0 W/m2
04:15 58.3 °F 55.7 °F 29.80 in SSE 1 mph 1 mph 91% 0.35 in 0 W/m2
04:20 58.4 °F 55.8 °F 29.80 in ESE 1 mph 1 mph 91% 0.22 in 0 W/m2
04:25 58.3 °F 55.7 °F 29.79 in SSE 1 mph 1 mph 91% 0.17 in 0 W/m2
04:30 58.2 °F 55.6 °F 29.79 in ESE 1 mph 1 mph 91% 0.23 in 0 W/m2
04:35 58.2 °F 55.6 °F 29.79 in NE 1 mph 1 mph 91% 0.14 in 0 W/m2
04:40 58.1 °F 55.5 °F 29.79 in Calm     91% 0.13 in 0 W/m2
04:45 58.1 °F 55.5 °F 29.79 in Calm   1 mph 91% 0.12 in 0 W/m2
04:50 58 °F 55.4 °F 29.79 in East 1 mph 1 mph 91% 0.34 in 0 W/m2
04:55 57.8 °F 55.2 °F 29.79 in NE 1 mph 1 mph 91% 0.22 in 0 W/m2
05:00 57.7 °F 55.1 °F 29.78 in Calm   1 mph 91% 0.16 in 0 W/m2
05:05 57.6 °F 55 °F 29.77 in East 1 mph 1 mph 91% 0.17 in 0 W/m2
05:10 57.6 °F 55 °F 29.77 in ENE 1 mph 1 mph 91% 0.12 in 0 W/m2
05:15 57.6 °F 55 °F 29.77 in Calm   1 mph 91% 0.36 in 0 W/m2
05:20 57.5 °F 54.9 °F 29.77 in Calm     91% 0.27 in 0 W/m2
05:25 57.5 °F 54.9 °F 29.77 in ESE 1 mph 2 mph 91% 0.16 in 0 W/m2
05:30 57.5 °F 54.9 °F 29.76 in West 1 mph 1 mph 91% 0.12 in 0 W/m2
05:35 57.4 °F 54.8 °F 29.76 in East 2 mph 2 mph 91% 0.07 in 0 W/m2
05:40 57.4 °F 55.1 °F 29.76 in West 1 mph 1 mph 92% 0.05 in 0 W/m2
05:45 57.3 °F 55 °F 29.75 in NNW 1 mph 1 mph 92% 0.05 in 0 W/m2
05:50 57.4 °F 55.1 °F 29.75 in NW 1 mph 1 mph 92% 0.05 in 0 W/m2
05:55 57.3 °F 55 °F 29.76 in NNE 1 mph 1 mph 92% 0.05 in 0 W/m2
06:00 57.3 °F 55 °F 29.75 in NE 1 mph 1 mph 92% 0.05 in 0 W/m2
06:05 57.2 °F 54.9 °F 29.73 in East 1 mph 1 mph 92% 0.04 in 0 W/m2
06:10 57.3 °F 55 °F 29.73 in NW 1 mph 1 mph 92% 0.00 in 0 W/m2
06:15 57.3 °F 55 °F 29.73 in East 1 mph 1 mph 92% 0.00 in 0 W/m2
06:20 57.4 °F 55.1 °F 29.73 in WNW 1 mph 1 mph 92% 0.00 in 0 W/m2
06:25 57.6 °F 55.3 °F 29.74 in NE 1 mph 1 mph 92% 0.00 in 0 W/m2
06:30 57.5 °F 55.2 °F 29.74 in ENE 1 mph 1 mph 92% 0.00 in 0 W/m2
06:35 57.6 °F 55.3 °F 29.75 in NNE 2 mph 2 mph 92% 0.00 in 0 W/m2
06:40 57.6 °F 55.3 °F 29.75 in NNE 1 mph 1 mph 92% 0.00 in 0 W/m2
06:45 57.6 °F 55.3 °F 29.75 in North 1 mph 1 mph 92% 0.00 in 0 W/m2
06:50 57.7 °F 55.4 °F 29.75 in NE 1 mph 2 mph 92% 0.00 in 0 W/m2
06:55 57.7 °F 55.4 °F 29.75 in NNE 2 mph 2 mph 92% 0.00 in 0 W/m2
07:00 57.8 °F 55.5 °F 29.75 in NE 2 mph 2 mph 92% 0.00 in 0 W/m2
07:05 57.8 °F 55.5 °F 29.75 in ENE 1 mph 2 mph 92% 0.00 in 0 W/m2
07:10 57.8 °F 55.5 °F 29.74 in SE 1 mph 1 mph 92% 0.00 in 0 W/m2
07:15 57.9 °F 55.3 °F 29.73 in East 1 mph 1 mph 91% 0.00 in 0 W/m2
07:20 57.9 °F 55.3 °F 29.72 in North 2 mph 2 mph 91% 0.00 in 0 W/m2
07:25 57.9 °F 55.3 °F 29.72 in East 2 mph 3 mph 91% 0.00 in 0 W/m2
07:30 57.9 °F 55.3 °F 29.72 in WNW 2 mph 6 mph 91% 0.00 in 0 W/m2
07:35 57.9 °F 55.3 °F 29.72 in West 2 mph 6 mph 91% 0.00 in 0 W/m2
07:40 57.9 °F 55.3 °F 29.72 in NNW 2 mph 5 mph 91% 0.00 in 0 W/m2
07:45 57.9 °F 55.3 °F 29.71 in North 3 mph 5 mph 91% 0.00 in 0 W/m2
07:50 57.8 °F 55.2 °F 29.72 in NNW 3 mph 3 mph 91% 0.00 in 0 W/m2
07:55 57.8 °F 55.2 °F 29.71 in NE 3 mph 3 mph 91% 0.00 in 0 W/m2
08:00 57.7 °F 55.4 °F 29.71 in NW 2 mph 2 mph 92% 0.00 in 0 W/m2
08:05 57.7 °F 55.4 °F 29.72 in NW 3 mph 3 mph 92% 0.00 in 0 W/m2
08:10 57.6 °F 55.3 °F 29.72 in NNE 2 mph 3 mph 92% 0.00 in 0 W/m2
08:15 57.6 °F 55.3 °F 29.72 in WSW 2 mph 3 mph 92% 0.00 in 0 W/m2
08:20 57.6 °F 55.3 °F 29.71 in SE 2 mph 2 mph 92% 0.00 in 7 W/m2
08:25 57.6 °F 55.3 °F 29.71 in NE 2 mph 2 mph 92% 0.00 in 11 W/m2
08:30 57.5 °F 55.2 °F 29.71 in NE 2 mph 2 mph 92% 0.00 in 12 W/m2
08:35 57.6 °F 55.3 °F 29.71 in NNW 2 mph 2 mph 92% 0.00 in 11 W/m2
08:40 57.6 °F 55.3 °F 29.70 in North 2 mph 2 mph 92% 0.00 in 7 W/m2
08:45 57.6 °F 55.3 °F 29.70 in NNE 2 mph 2 mph 92% 0.00 in 7 W/m2
08:50 57.7 °F 55.4 °F 29.71 in NNE 2 mph 3 mph 92% 0.00 in 7 W/m2
08:55 57.7 °F 55.4 °F 29.71 in ESE 2 mph 3 mph 92% 0.00 in 9 W/m2
09:00 57.7 °F 55.4 °F 29.71 in NNE 2 mph 3 mph 92% 0.00 in 11 W/m2
09:05 57.9 °F 55.6 °F 29.70 in NE 2 mph 3 mph 92% 0.00 in 19 W/m2
09:10 57.9 °F 55.6 °F 29.71 in North 2 mph 3 mph 92% 0.00 in 16 W/m2
09:15 57.9 °F 55.6 °F 29.70 in NNE 3 mph 3 mph 92% 0.00 in 19 W/m2
09:20 57.9 °F 55.3 °F 29.70 in NNE 2 mph 2 mph 91% 0.00 in 26 W/m2
09:25 58 °F 55.4 °F 29.70 in NE 2 mph 2 mph 91% 0.00 in 35 W/m2
09:30 58.1 °F 55.5 °F 29.70 in NE 2 mph 2 mph 91% 0.00 in 53 W/m2
09:35 58.1 °F 55.5 °F 29.70 in North 2 mph 2 mph 91% 0.00 in 53 W/m2
09:40 58.1 °F 55.5 °F 29.70 in NE 2 mph 2 mph 91% 0.00 in 42 W/m2
09:45 58.2 °F 55.6 °F 29.70 in NE 2 mph 2 mph 91% 0.00 in 30 W/m2
09:50 58.3 °F 55.7 °F 29.70 in NE 2 mph 2 mph 91% 0.00 in 21 W/m2
09:55 58.4 °F 55.8 °F 29.70 in North 2 mph 3 mph 91% 0.00 in 25 W/m2
10:00 58.5 °F 55.9 °F 29.70 in NNE 3 mph 4 mph 91% 0.00 in 30 W/m2
10:05 58.5 °F 55.9 °F 29.70 in NNE 3 mph 4 mph 91% 0.00 in 35 W/m2
10:10 58.5 °F 55.9 °F 29.70 in NNE 3 mph 3 mph 91% 0.00 in 28 W/m2
10:15 58.6 °F 56 °F 29.70 in North 2 mph 3 mph 91% 0.00 in 32 W/m2
10:20 58.7 °F 56.1 °F 29.70 in NNE 2 mph 2 mph 91% 0.00 in 42 W/m2
10:25 58.8 °F 56.2 °F 29.69 in NNW 3 mph 3 mph 91% 0.00 in 47 W/m2
10:30 58.9 °F 56.3 °F 29.69 in NE 3 mph 3 mph 91% 0.00 in 42 W/m2
10:35 59 °F 56.1 °F 29.69 in WSW 2 mph 3 mph 90% 0.00 in 40 W/m2
10:40 59 °F 56.1 °F 29.69 in ENE 2 mph 3 mph 90% 0.00 in 56 W/m2
10:45 59 °F 56.4 °F 29.69 in NW 2 mph 3 mph 91% 0.00 in 120 W/m2
10:50 59.1 °F 56.5 °F 29.68 in North 2 mph 2 mph 91% 0.00 in 123 W/m2
10:55 59.2 °F 56.6 °F 29.68 in North 2 mph 2 mph 91% 0.00 in 125 W/m2
11:00 59.2 °F 56.6 °F 29.68 in NNE 2 mph 3 mph 91% 0.00 in 118 W/m2
11:05 59.3 °F 56.7 °F 29.68 in NE 2 mph 3 mph 91% 0.00 in 104 W/m2
11:10 59.4 °F 56.8 °F 29.68 in NNE 2 mph 3 mph 91% 0.00 in 139 W/m2
11:15 59.5 °F 56.9 °F 29.68 in NNW 2 mph 3 mph 91% 0.00 in 190 W/m2
11:20 59.7 °F 57.1 °F 29.68 in ENE 2 mph 4 mph 91% 0.00 in 174 W/m2
11:25 59.8 °F 57.2 °F 29.67 in NNW 3 mph 4 mph 91% 0.00 in 278 W/m2
11:30 60 °F 57.4 °F 29.67 in ENE 3 mph 3 mph 91% 0.00 in 292 W/m2
11:35 60.1 °F 57.2 °F 29.67 in ENE 3 mph 3 mph 90% 0.00 in 230 W/m2
11:40 60.1 °F 57.2 °F 29.67 in SW 3 mph 3 mph 90% 0.00 in 225 W/m2
11:45 60.3 °F 57.4 °F 29.67 in SW 3 mph 6 mph 90% 0.00 in 230 W/m2
11:50 60.7 °F 57.7 °F 29.68 in SW 4 mph 4 mph 90% 0.00 in 265 W/m2
11:55 60.7 °F 57.4 °F 29.68 in SE 5 mph 5 mph 89% 0.00 in 190 W/m2
12:00 60.7 °F 57.4 °F 29.68 in SW 6 mph 6 mph 89% 0.00 in 193 W/m2
12:05 60.8 °F 57.5 °F 29.68 in SW 5 mph 6 mph 89% 0.00 in 615 W/m2
12:10 60.7 °F 57.4 °F 29.68 in SSW 5 mph 6 mph 89% 0.00 in 88 W/m2
12:15 60.7 °F 57.4 °F 29.68 in SW 5 mph 6 mph 89% 0.00 in 88 W/m2
12:20 60.6 °F 57.3 °F 29.68 in SSW 4 mph 4 mph 89% 0.00 in 88 W/m2
12:25 60.5 °F 57.2 °F 29.68 in SW 4 mph 7 mph 89% 0.00 in 190 W/m2
12:30 60.7 °F 57.4 °F 29.68 in SW 4 mph 4 mph 89% 0.00 in 223 W/m2
12:35 60.8 °F 57.2 °F 29.68 in SW 4 mph 4 mph 88% 0.00 in 193 W/m2
12:40 60.8 °F 57.2 °F 29.67 in SW 4 mph 5 mph 88% 0.00 in 216 W/m2
12:45 61 °F 57.4 °F 29.67 in SW 4 mph 5 mph 88% 0.00 in 223 W/m2
12:50 61.1 °F 57.5 °F 29.67 in SW 3 mph 3 mph 88% 0.00 in 429 W/m2
12:55 61.2 °F 57.6 °F 29.67 in NNE 3 mph 3 mph 88% 0.00 in 100 W/m2
13:00 61.2 °F 57.6 °F 29.67 in SW 3 mph 3 mph 88% 0.00 in 195 W/m2
13:05 61.2 °F 57.6 °F 29.67 in SSE 3 mph 3 mph 88% 0.00 in 686 W/m2
13:10 61.4 °F 57.8 °F 29.66 in South 3 mph 3 mph 88% 0.00 in 480 W/m2
13:15 61.5 °F 57.9 °F 29.66 in SW 3 mph 3 mph 88% 0.00 in 167 W/m2
13:20 61.5 °F 57.6 °F 29.66 in West 3 mph 5 mph 87% 0.00 in 383 W/m2
13:25 61.7 °F 57.8 °F 29.66 in SSE 3 mph 5 mph 87% 0.00 in 617 W/m2
13:30 61.9 °F 58 °F 29.65 in SW 3 mph 3 mph 87% 0.00 in 417 W/m2
13:35 61.9 °F 57.7 °F 29.65 in SSW 4 mph 4 mph 86% 0.00 in 229 W/m2
13:40 61.9 °F 57.7 °F 29.65 in SSW 3 mph 4 mph 86% 0.00 in 160 W/m2
13:45 61.7 °F 57.5 °F 29.65 in WSW 4 mph 5 mph 86% 0.00 in 202 W/m2
13:50 61.7 °F 57.5 °F 29.65 in SSE 4 mph 4 mph 86% 0.00 in 223 W/m2
13:55 61.8 °F 57.6 °F 29.65 in WSW 4 mph 4 mph 86% 0.00 in 308 W/m2
14:00 62.1 °F 57.9 °F 29.65 in SW 4 mph 4 mph 86% 0.00 in 654 W/m2
14:10 62 °F 57.4 °F 29.65 in SW 3 mph 4 mph 85% 0.00 in 536 W/m2
14:15 62.5 °F 57.3 °F 29.65 in SSE 4 mph 4 mph 83% 0.00 in 664 W/m2
14:20 62.5 °F 56.6 °F 29.66 in SW 6 mph 9 mph 81% 0.00 in 671 W/m2
14:25 63.2 °F 56.2 °F 29.65 in WSW 6 mph 9 mph 78% 0.00 in 698 W/m2
14:30 63.3 °F 56 °F 29.65 in WSW 6 mph 6 mph 77% 0.00 in 715 W/m2
14:35 63.1 °F 55.8 °F 29.65 in WSW 6 mph 10 mph 77% 0.00 in 666 W/m2
14:40 62.9 °F 55.2 °F 29.65 in SW 6 mph 6 mph 76% 0.00 in 239 W/m2
14:45 62.8 °F 55.1 °F 29.65 in West 5 mph 6 mph 76% 0.00 in 585 W/m2
14:50 62.7 °F 54.7 °F 29.65 in NW 5 mph 6 mph 75% 0.00 in 397 W/m2
14:55 62.8 °F 55.1 °F 29.66 in SW 6 mph 7 mph 76% 0.00 in 582 W/m2
15:00 62.8 °F 55.5 °F 29.66 in SSW 5 mph 11 mph 77% 0.00 in 195 W/m2
15:05 62.5 °F 54.8 °F 29.65 in SW 5 mph 11 mph 76% 0.00 in 134 W/m2
15:10 62 °F 54 °F 29.66 in SSW 6 mph 8 mph 75% 0.00 in 104 W/m2
15:15 61.6 °F 54 °F 29.66 in SSW 7 mph 8 mph 76% 0.00 in 90 W/m2
15:20 61.4 °F 54.1 °F 29.66 in SW 6 mph 7 mph 77% 0.00 in 81 W/m2
15:25 61.3 °F 54 °F 29.66 in WNW 6 mph 7 mph 77% 0.00 in 77 W/m2
15:30 61.3 °F 54.7 °F 29.66 in SW 5 mph 5 mph 79% 0.00 in 76 W/m2
15:35 61.2 °F 54.3 °F 29.66 in West 4 mph 5 mph 78% 0.00 in 70 W/m2
15:40 61.1 °F 54.2 °F 29.66 in WNW 3 mph 3 mph 78% 0.00 in 62 W/m2
15:45 61 °F 54.1 °F 29.66 in WSW 3 mph 3 mph 78% 0.00 in 46 W/m2
15:50 61 °F 54.1 °F 29.66 in North 4 mph 4 mph 78% 0.00 in 32 W/m2
15:55 61 °F 54.1 °F 29.66 in West 3 mph 5 mph 78% 0.00 in 16 W/m2
16:00 60.9 °F 54.3 °F 29.67 in NW 3 mph 3 mph 79% 0.00 in 12 W/m2
16:05 60.8 °F 54.2 °F 29.67 in SW 3 mph 3 mph 79% 0.00 in 9 W/m2
16:10 60.2 °F 53.7 °F 29.67 in NNW 3 mph 3 mph 79% 0.00 in 7 W/m2
16:15 59.2 °F 53 °F 29.68 in South 4 mph 4 mph 80% 0.00 in 11 W/m2
16:20 58 °F 51.9 °F 29.68 in WNW 4 mph 4 mph 80% 0.00 in 18 W/m2
16:25 57 °F 51.6 °F 29.69 in West 4 mph 4 mph 82% 0.00 in 14 W/m2
16:30 56.1 °F 51 °F 29.69 in NE 4 mph 4 mph 83% 0.00 in 11 W/m2
16:35 55.4 °F 50.6 °F 29.69 in WNW 4 mph 4 mph 84% 0.06 in 12 W/m2
16:40 54.8 °F 50.4 °F 29.70 in NNE 5 mph 5 mph 85% 0.06 in 16 W/m2
16:45 54.4 °F 50.3 °F 29.70 in North 6 mph 9 mph 86% 0.05 in 12 W/m2
16:50 53.9 °F 49.8 °F 29.70 in North 6 mph 6 mph 86% 0.12 in 9 W/m2
16:55 53.7 °F 49.9 °F 29.71 in NW 5 mph 9 mph 87% 0.11 in 9 W/m2
17:00 53.3 °F 49.5 °F 29.71 in North 6 mph 6 mph 87% 0.10 in 7 W/m2
17:05 53 °F 49.5 °F 29.71 in WNW 6 mph 6 mph 88% 0.11 in 9 W/m2
17:10 52.8 °F 49.3 °F 29.72 in NNW 6 mph 6 mph 88% 0.09 in 9 W/m2
17:15 52.7 °F 49.2 °F 29.72 in North 6 mph 6 mph 88% 0.10 in 7 W/m2
17:20 52.6 °F 49.4 °F 29.72 in WNW 6 mph 7 mph 89% 0.13 in 5 W/m2
17:25 52.4 °F 49.3 °F 29.72 in East 6 mph 7 mph 89% 0.09 in 5 W/m2
17:30 52.3 °F 49.2 °F 29.73 in North 5 mph 9 mph 89% 0.09 in 5 W/m2
17:35 52.1 °F 49 °F 29.73 in NW 6 mph 12 mph 89% 0.06 in 7 W/m2
17:40 52.1 °F 49 °F 29.73 in NNE 6 mph 6 mph 89% 0.06 in 7 W/m2
17:45 52.1 °F 49 °F 29.73 in NW 6 mph 6 mph 89% 0.06 in 9 W/m2
17:50 52.2 °F 49.4 °F 29.74 in North 6 mph 13 mph 90% 0.04 in 9 W/m2
17:55 52.2 °F 49.4 °F 29.74 in North 6 mph 13 mph 90% 0.00 in 7 W/m2
18:00 52.1 °F 49.3 °F 29.74 in North 6 mph 8 mph 90% 0.00 in 7 W/m2
18:05 52 °F 48.9 °F 29.74 in North 7 mph 8 mph 89% 0.00 in 9 W/m2
18:10 51.8 °F 48.7 °F 29.75 in North 7 mph 7 mph 89% 0.00 in 7 W/m2
18:15 51.7 °F 48.6 °F 29.75 in NW 7 mph 9 mph 89% 0.00 in 5 W/m2
18:20 51.5 °F 48.4 °F 29.76 in North 7 mph 7 mph 89% 0.00 in 5 W/m2
18:25 51.4 °F 48 °F 29.76 in East 7 mph 7 mph 88% 0.00 in 5 W/m2
18:30 51.2 °F 47.8 °F 29.76 in NW 8 mph 8 mph 88% 0.00 in 0 W/m2
18:40 51 °F 47.3 °F 29.77 in WNW 6 mph 6 mph 87% 0.00 in 0 W/m2
18:45 50.7 °F 47 °F 29.78 in NW 6 mph 11 mph 87% 0.00 in 0 W/m2
18:50 50.4 °F 46.7 °F 29.78 in North 7 mph 8 mph 87% 0.00 in 0 W/m2
18:55 50.1 °F 46.4 °F 29.78 in NE 7 mph 8 mph 87% 0.00 in 0 W/m2
19:00 49.7 °F 45.7 °F 29.79 in North 8 mph 18 mph 86% 0.00 in 0 W/m2
19:05 49.6 °F 45.9 °F 29.79 in NW 7 mph 18 mph 87% 0.00 in 0 W/m2
19:10 49.3 °F 45.3 °F 29.80 in NW 7 mph 8 mph 86% 0.00 in 0 W/m2
19:15 49.1 °F 45.1 °F 29.80 in WNW 8 mph 8 mph 86% 0.00 in 0 W/m2
19:20 49 °F 45 °F 29.80 in NE 7 mph 11 mph 86% 0.00 in 0 W/m2
19:25 48.8 °F 44.8 °F 29.80 in NNW 8 mph 11 mph 86% 0.00 in 0 W/m2
19:30 48.8 °F 44.5 °F 29.81 in NNE 8 mph 17 mph 85% 0.00 in 0 W/m2
19:35 48.7 °F 44.4 °F 29.81 in NNE 8 mph 17 mph 85% 0.00 in 0 W/m2
19:40 48.7 °F 44.1 °F 29.81 in NNW 8 mph 8 mph 84% 0.00 in 0 W/m2
19:45 48.5 °F 43.9 °F 29.81 in North 7 mph 9 mph 84% 0.00 in 0 W/m2
19:50 48.4 °F 43.5 °F 29.81 in North 7 mph 13 mph 83% 0.00 in 0 W/m2
19:55 48.4 °F 43.8 °F 29.82 in North 7 mph 13 mph 84% 0.00 in 0 W/m2
20:05 48.3 °F 43.4 °F 29.82 in NNW 7 mph 7 mph 83% 0.00 in 0 W/m2
20:10 48.3 °F 43.4 °F 29.82 in NE 7 mph 7 mph 83% 0.00 in 0 W/m2
20:15 48.3 °F 43.1 °F 29.83 in NNE 6 mph 6 mph 82% 0.00 in 0 W/m2
20:20 48.3 °F 43.1 °F 29.83 in ESE 7 mph 7 mph 82% 0.00 in 0 W/m2
20:25 48.4 °F 43.5 °F 29.83 in NW 7 mph 7 mph 83% 0.00 in 0 W/m2
20:30 48.5 °F 43.9 °F 29.84 in West 5 mph 7 mph 84% 0.00 in 0 W/m2
20:35 48.3 °F 43.4 °F 29.84 in ENE 5 mph 5 mph 83% 0.00 in 0 W/m2
20:40 48.1 °F 42.5 °F 29.84 in WNW 7 mph 11 mph 81% 0.00 in 0 W/m2
20:45 47.9 °F 42 °F 29.85 in NW 8 mph 8 mph 80% 0.00 in 0 W/m2
20:50 47.9 °F 42 °F 29.85 in NW 7 mph 15 mph 80% 0.00 in 0 W/m2
20:55 47.7 °F 41.5 °F 29.86 in NNW 7 mph 7 mph 79% 0.00 in 0 W/m2
21:00 47.7 °F 41.5 °F 29.86 in NW 7 mph 9 mph 79% 0.00 in 0 W/m2
21:05 47.5 °F 41 °F 29.86 in NW 7 mph 9 mph 78% 0.00 in 0 W/m2
21:10 47.4 °F 40.6 °F 29.86 in NNW 7 mph 7 mph 77% 0.00 in 0 W/m2
21:15 47.3 °F 40.8 °F 29.87 in NNW 6 mph 9 mph 78% 0.00 in 0 W/m2
21:20 47.2 °F 40.7 °F 29.87 in WNW 7 mph 11 mph 78% 0.00 in 0 W/m2
21:25 47.1 °F 40.6 °F 29.87 in NE 7 mph 12 mph 78% 0.00 in 0 W/m2
21:30 47 °F 40.2 °F 29.88 in NNW 7 mph 7 mph 77% 0.00 in 0 W/m2
21:35 46.8 °F 39.6 °F 29.89 in ESE 7 mph 7 mph 76% 0.00 in 0 W/m2
21:40 46.7 °F 39.5 °F 29.89 in NW 6 mph 12 mph 76% 0.00 in 0 W/m2
21:45 46.6 °F 39.4 °F 29.89 in NNW 6 mph 12 mph 76% 0.00 in 0 W/m2
21:50 46.6 °F 39.8 °F 29.89 in NNE 6 mph 6 mph 77% 0.00 in 0 W/m2
21:55 46.5 °F 39.7 °F 29.89 in North 5 mph 6 mph 77% 0.00 in 0 W/m2
22:00 46.5 °F 39.7 °F 29.90 in NNW 4 mph 7 mph 77% 0.00 in 0 W/m2
22:05 46.4 °F 39.6 °F 29.90 in WNW 5 mph 7 mph 77% 0.00 in 0 W/m2
22:10 46.3 °F 39.1 °F 29.90 in WNW 5 mph 5 mph 76% 0.00 in 0 W/m2
22:15 46.2 °F 39.1 °F 29.90 in North 4 mph 11 mph 76% 0.00 in 0 W/m2
22:20 46.1 °F 39 °F 29.91 in North 5 mph 9 mph 76% 0.00 in 0 W/m2
22:25 46.1 °F 38.6 °F 29.91 in NE 6 mph 11 mph 75% 0.00 in 0 W/m2
22:30 46.1 °F 38.6 °F 29.90 in NW 5 mph 5 mph 75% 0.00 in 0 W/m2
22:35 46.1 °F 38.3 °F 29.91 in NW 5 mph 17 mph 74% 0.00 in 0 W/m2
22:40 46 °F 38.2 °F 29.91 in NW 6 mph 10 mph 74% 0.00 in 0 W/m2
22:45 46 °F 38.5 °F 29.91 in NW 6 mph 10 mph 75% 0.00 in 0 W/m2
22:50 46 °F 38.5 °F 29.91 in NNE 5 mph 5 mph 75% 0.00 in 0 W/m2
Sand Point, Michigan, USA
Compliments of Weather Underground - 2 mb